Time;durP1;ratioP1;P1;durP2;ratioP2;P2;SDS_P1;SDS_P2;PMS_P1;PMS_P2;Temp;Humidity;BMP_temperature;BMP_pressure;BME280_temperature;BME280_humidity;BME280_pressure;Samples;Min_cycle;Max_cycle;Signal;HPM_P1;HPM_P2
2024/02/21 00:01:05;;;;;;;3.20;3.10;;;;;;;;;;5032412;28;20480;-78
2024/02/21 00:03:31;;;;;;;2.60;2.50;;;;;;;;;;5021243;28;20473;-79
2024/02/21 00:05:58;;;;;;;2.97;2.87;;;;;;;;;;5027310;28;20493;-79
2024/02/21 00:08:24;;;;;;;3.03;2.93;;;;;;;;;;5022866;28;20494;-79
2024/02/21 00:10:52;;;;;;;2.80;2.70;;;;;;;;;;5015950;28;20494;-79
2024/02/21 00:13:18;;;;;;;3.20;3.10;;;;;;;;;;5022374;28;20494;-79
2024/02/21 00:15:44;;;;;;;2.90;2.80;;;;;;;;;;5030734;28;20521;-80
2024/02/21 00:18:12;;;;;;;2.90;2.80;;;;;;;;;;5011933;28;20479;-80
2024/02/21 00:20:38;;;;;;;2.90;2.80;;;;;;;;;;5017169;28;20506;-79
2024/02/21 00:23:05;;;;;;;3.10;3.00;;;;;;;;;;5014622;28;20639;-80
2024/02/21 00:25:32;;;;;;;3.27;3.17;;;;;;;;;;5016876;28;20465;-79
2024/02/21 00:27:59;;;;;;;2.60;2.50;;;;;;;;;;5026857;28;20474;-79
2024/02/21 00:30:26;;;;;;;2.13;2.03;;;;;;;;;;5020679;28;20531;-79
2024/02/21 00:32:52;;;;;;;2.50;2.40;;;;;;;;;;5017313;28;20462;-79
2024/02/21 00:35:19;;;;;;;3.67;3.50;;;;;;;;;;5022769;28;20479;-79
2024/02/21 00:37:45;;;;;;;3.10;3.00;;;;;;;;;;5022031;28;20469;-78
2024/02/21 00:40:12;;;;;;;3.40;3.30;;;;;;;;;;5025529;28;21000;-79
2024/02/21 00:42:38;;;;;;;3.47;3.37;;;;;;;;;;5024480;28;20898;-79
2024/02/21 00:45:07;;;;;;;3.57;3.47;;;;;;;;;;5022446;28;20541;-79
2024/02/21 00:47:34;;;;;;;3.40;3.30;;;;;;;;;;5012205;28;20949;-79
2024/02/21 00:50:00;;;;;;;3.10;3.00;;;;;;;;;;5019356;28;20508;-79
2024/02/21 00:52:26;;;;;;;3.10;3.00;;;;;;;;;;5016043;28;20546;-78
2024/02/21 00:54:53;;;;;;;3.37;3.27;;;;;;;;;;5016851;28;20490;-78
2024/02/21 00:57:19;;;;;;;3.40;3.30;;;;;;;;;;5025431;28;20481;-79
2024/02/21 00:59:46;;;;;;;5.03;4.70;;;;;;;;;;5031029;28;20547;-79
2024/02/21 01:02:14;;;;;;;3.17;3.07;;;;;;;;;;5022955;28;20451;-78
2024/02/21 01:04:40;;;;;;;3.50;3.40;;;;;;;;;;5025463;28;20466;-78
2024/02/21 01:07:06;;;;;;;3.40;3.30;;;;;;;;;;5023474;28;20450;-78
2024/02/21 01:09:33;;;;;;;3.47;3.37;;;;;;;;;;5020659;28;20857;-78
2024/02/21 01:11:59;;;;;;;3.37;3.27;;;;;;;;;;5026260;28;20559;-79
2024/02/21 01:14:25;;;;;;;4.27;4.10;;;;;;;;;;5024637;28;20512;-79
2024/02/21 01:16:52;;;;;;;2.90;2.80;;;;;;;;;;5021046;28;20542;-79
2024/02/21 01:19:20;;;;;;;2.70;2.60;;;;;;;;;;5031193;28;20483;-79
2024/02/21 01:21:46;;;;;;;3.33;3.23;;;;;;;;;;5030882;28;20470;-78
2024/02/21 01:24:14;;;;;;;2.33;2.23;;;;;;;;;;5022635;28;20495;-79
2024/02/21 01:26:40;;;;;;;3.40;3.30;;;;;;;;;;5031069;28;20469;-79
2024/02/21 01:29:07;;;;;;;2.50;2.40;;;;;;;;;;5023904;28;20507;-77
2024/02/21 01:31:33;;;;;;;2.90;2.80;;;;;;;;;;5015173;28;20566;-78
2024/02/21 01:33:59;;;;;;;2.90;2.80;;;;;;;;;;5016379;28;20479;-78
2024/02/21 01:36:27;;;;;;;2.80;2.70;;;;;;;;;;5023326;28;20456;-78
2024/02/21 01:38:54;;;;;;;2.90;2.80;;;;;;;;;;5021570;28;20522;-78
2024/02/21 01:41:20;;;;;;;3.27;3.17;;;;;;;;;;5028467;28;20548;-79
2024/02/21 01:43:46;;;;;;;2.80;2.70;;;;;;;;;;5021771;28;20539;-79
2024/02/21 01:46:13;;;;;;;3.50;3.33;;;;;;;;;;5027651;28;20518;-78
2024/02/21 01:48:39;;;;;;;3.10;3.00;;;;;;;;;;5020542;28;20553;-79
2024/02/21 01:51:06;;;;;;;3.23;3.13;;;;;;;;;;5023631;28;20576;-79
2024/02/21 01:53:35;;;;;;;3.10;3.00;;;;;;;;;;5023143;28;21292;-79
2024/02/21 01:56:02;;;;;;;3.03;2.93;;;;;;;;;;5014336;28;20462;-79
2024/02/21 01:58:29;;;;;;;2.93;2.83;;;;;;;;;;5014617;28;20899;-79
2024/02/21 02:00:57;;;;;;;2.90;2.80;;;;;;;;;;5024709;28;20556;-79
2024/02/21 02:03:24;;;;;;;3.10;3.00;;;;;;;;;;5026009;28;20493;-79
2024/02/21 02:05:51;;;;;;;2.70;2.60;;;;;;;;;;5025484;28;20434;-79
2024/02/21 02:08:18;;;;;;;2.50;2.40;;;;;;;;;;5028442;28;20475;-78
2024/02/21 02:10:46;;;;;;;2.70;2.60;;;;;;;;;;5025395;28;20497;-80
2024/02/21 02:13:13;;;;;;;3.17;3.07;;;;;;;;;;5028759;28;20459;-79
2024/02/21 02:15:40;;;;;;;3.10;3.00;;;;;;;;;;5028202;28;20501;-79
2024/02/21 02:18:06;;;;;;;3.00;2.90;;;;;;;;;;5024928;28;20457;-78
2024/02/21 02:20:33;;;;;;;3.00;2.90;;;;;;;;;;5028320;28;20455;-80
2024/02/21 02:23:00;;;;;;;2.97;2.87;;;;;;;;;;5021733;28;20513;-79
2024/02/21 02:25:28;;;;;;;3.70;3.60;;;;;;;;;;5020067;28;20462;-80
2024/02/21 02:27:54;;;;;;;3.43;3.33;;;;;;;;;;5027776;28;20514;-79
2024/02/21 02:30:21;;;;;;;2.50;2.40;;;;;;;;;;5018660;28;20561;-80
2024/02/21 02:32:47;;;;;;;3.20;3.10;;;;;;;;;;5027406;28;20462;-79
2024/02/21 02:35:14;;;;;;;2.80;2.70;;;;;;;;;;5029225;28;21350;-79
2024/02/21 02:37:40;;;;;;;2.73;2.63;;;;;;;;;;5020644;28;20891;-79
2024/02/21 02:40:07;;;;;;;4.97;4.67;;;;;;;;;;5023718;28;20495;-79
2024/02/21 02:42:35;;;;;;;3.67;3.57;;;;;;;;;;5032179;28;20482;-79
2024/02/21 02:45:01;;;;;;;3.40;3.30;;;;;;;;;;5017656;28;20497;-79
2024/02/21 02:47:28;;;;;;;3.27;3.17;;;;;;;;;;5033294;28;20466;-79
2024/02/21 02:49:54;;;;;;;3.13;3.03;;;;;;;;;;5024206;28;20467;-79
2024/02/21 02:52:21;;;;;;;3.07;2.97;;;;;;;;;;5022547;28;20474;-79
2024/02/21 02:54:51;;;;;;;3.33;3.23;;;;;;;;;;5028003;28;20488;-78
2024/02/21 02:57:18;;;;;;;3.10;3.00;;;;;;;;;;5028807;28;20453;-79
2024/02/21 02:59:49;;;;;;;3.30;3.20;;;;;;;;;;5017160;28;20560;-79
2024/02/21 03:02:15;;;;;;;3.27;3.17;;;;;;;;;;5017206;28;20474;-78
2024/02/21 03:04:42;;;;;;;3.47;3.37;;;;;;;;;;5029956;28;20545;-78
2024/02/21 03:07:08;;;;;;;3.27;3.17;;;;;;;;;;5025814;28;20457;-78
2024/02/21 03:09:34;;;;;;;3.00;2.90;;;;;;;;;;5026947;28;20493;-79
2024/02/21 03:12:03;;;;;;;3.10;3.00;;;;;;;;;;5019182;28;20522;-79
2024/02/21 03:14:29;;;;;;;2.80;2.70;;;;;;;;;;5027833;28;20457;-79
2024/02/21 03:16:58;;;;;;;2.90;2.80;;;;;;;;;;5023817;28;20478;-79
2024/02/21 03:19:24;;;;;;;3.17;3.07;;;;;;;;;;5025977;28;20605;-79
2024/02/21 03:21:50;;;;;;;3.00;2.90;;;;;;;;;;5025332;28;20454;-79
2024/02/21 03:24:17;;;;;;;3.13;3.03;;;;;;;;;;5026995;28;20442;-77
2024/02/21 03:26:43;;;;;;;3.00;2.90;;;;;;;;;;5025316;28;20562;-78
2024/02/21 03:29:11;;;;;;;3.27;3.17;;;;;;;;;;5029677;28;20455;-78
2024/02/21 03:31:37;;;;;;;2.83;2.73;;;;;;;;;;5023469;28;20483;-78
2024/02/21 03:34:05;;;;;;;2.80;2.70;;;;;;;;;;5031552;28;20496;-78
2024/02/21 03:36:31;;;;;;;3.13;3.03;;;;;;;;;;5035851;28;20458;-78
2024/02/21 03:38:58;;;;;;;3.23;3.13;;;;;;;;;;5024789;28;20485;-78
2024/02/21 03:41:24;;;;;;;5.80;5.40;;;;;;;;;;5025951;28;20501;-78
2024/02/21 03:43:51;;;;;;;3.30;3.20;;;;;;;;;;5028500;28;20482;-77
2024/02/21 03:46:17;;;;;;;3.00;2.90;;;;;;;;;;5023122;28;20536;-78
2024/02/21 03:48:43;;;;;;;3.30;3.20;;;;;;;;;;5026408;28;20530;-78
2024/02/21 03:51:11;;;;;;;3.30;3.20;;;;;;;;;;5024134;28;20474;-78
2024/02/21 03:53:37;;;;;;;4.43;4.30;;;;;;;;;;5019475;28;20482;-78
2024/02/21 03:56:04;;;;;;;2.90;2.80;;;;;;;;;;5025914;28;20489;-78
2024/02/21 03:58:31;;;;;;;3.50;3.40;;;;;;;;;;5027617;28;20455;-78
2024/02/21 04:00:57;;;;;;;3.33;3.23;;;;;;;;;;5026197;28;20454;-78
2024/02/21 04:03:24;;;;;;;3.40;3.30;;;;;;;;;;5033552;28;20553;-77
2024/02/21 04:05:50;;;;;;;3.30;3.20;;;;;;;;;;5031127;28;20539;-78
2024/02/21 04:08:18;;;;;;;4.30;4.20;;;;;;;;;;5024511;28;20518;-78
2024/02/21 04:10:44;;;;;;;3.33;3.23;;;;;;;;;;5021770;28;20494;-78
2024/02/21 04:13:11;;;;;;;3.63;3.53;;;;;;;;;;5019209;28;20484;-78
2024/02/21 04:15:37;;;;;;;3.30;3.20;;;;;;;;;;5022864;28;20562;-78
2024/02/21 04:18:04;;;;;;;4.20;4.10;;;;;;;;;;5028472;28;20504;-78
2024/02/21 04:20:30;;;;;;;3.57;3.47;;;;;;;;;;5029401;28;20526;-78
2024/02/21 04:22:56;;;;;;;3.30;3.20;;;;;;;;;;5027033;28;20550;-78
2024/02/21 04:25:24;;;;;;;3.53;3.43;;;;;;;;;;5020434;28;20526;-78
2024/02/21 04:27:51;;;;;;;3.53;3.43;;;;;;;;;;5025814;28;20461;-78
2024/02/21 04:30:18;;;;;;;3.63;3.53;;;;;;;;;;5021757;28;20457;-78
2024/02/21 04:32:44;;;;;;;3.27;3.17;;;;;;;;;;5025624;28;20526;-78
2024/02/21 04:35:10;;;;;;;3.87;3.77;;;;;;;;;;5031197;28;21034;-78
2024/02/21 04:37:37;;;;;;;3.20;3.10;;;;;;;;;;5025081;28;20514;-78
2024/02/21 04:40:04;;;;;;;3.70;3.60;;;;;;;;;;5023471;28;20518;-78
2024/02/21 04:42:31;;;;;;;3.37;3.27;;;;;;;;;;5022670;28;20457;-78
2024/02/21 04:44:58;;;;;;;3.53;3.43;;;;;;;;;;5020107;28;20466;-78
2024/02/21 04:47:24;;;;;;;3.40;3.30;;;;;;;;;;5012103;28;20471;-78
2024/02/21 04:49:51;;;;;;;4.20;4.10;;;;;;;;;;5028764;28;20455;-78
2024/02/21 04:52:17;;;;;;;5.60;5.30;;;;;;;;;;5023574;28;20550;-77
2024/02/21 04:54:44;;;;;;;3.47;3.37;;;;;;;;;;5014425;28;20466;-77
2024/02/21 04:57:11;;;;;;;3.17;3.07;;;;;;;;;;5019211;28;20525;-78
2024/02/21 04:59:38;;;;;;;3.10;3.00;;;;;;;;;;5013315;28;20469;-78
2024/02/21 05:02:05;;;;;;;3.50;3.40;;;;;;;;;;5023907;28;20442;-78
2024/02/21 05:04:31;;;;;;;2.90;2.80;;;;;;;;;;5020171;28;20463;-79
2024/02/21 05:06:57;;;;;;;2.87;2.77;;;;;;;;;;5017454;28;20469;-78
2024/02/21 05:09:24;;;;;;;2.27;2.17;;;;;;;;;;5014970;28;20461;-78
2024/02/21 05:11:50;;;;;;;65.23;7.13;;;;;;;;;;5026359;28;20517;-78
2024/02/21 05:14:17;;;;;;;2.60;2.50;;;;;;;;;;5022931;28;20454;-78
2024/02/21 05:16:44;;;;;;;2.37;2.27;;;;;;;;;;5019664;28;20494;-78
2024/02/21 05:19:11;;;;;;;2.40;2.30;;;;;;;;;;5024227;28;20476;-78
2024/02/21 05:21:37;;;;;;;2.10;2.00;;;;;;;;;;5029061;28;20533;-78
2024/02/21 05:24:04;;;;;;;2.73;2.63;;;;;;;;;;5018541;28;20500;-77
2024/02/21 05:26:30;;;;;;;2.50;2.40;;;;;;;;;;5018478;28;20481;-78
2024/02/21 05:28:57;;;;;;;2.67;2.57;;;;;;;;;;5021142;28;20493;-78
2024/02/21 05:31:23;;;;;;;2.63;2.53;;;;;;;;;;5019364;28;20585;-78
2024/02/21 05:33:51;;;;;;;2.53;2.43;;;;;;;;;;5020387;28;20482;-77
2024/02/21 05:36:17;;;;;;;2.80;2.70;;;;;;;;;;5020845;28;20528;-78
2024/02/21 05:38:44;;;;;;;2.47;2.37;;;;;;;;;;5015416;28;20466;-78
2024/02/21 05:41:10;;;;;;;2.07;1.97;;;;;;;;;;5019142;28;21030;-78
2024/02/21 05:43:36;;;;;;;2.47;2.37;;;;;;;;;;5028944;28;20534;-78
2024/02/21 05:46:03;;;;;;;2.40;2.30;;;;;;;;;;5024379;28;20481;-78
2024/02/21 05:48:30;;;;;;;2.50;2.40;;;;;;;;;;5018752;28;20472;-77
2024/02/21 05:50:57;;;;;;;2.47;2.37;;;;;;;;;;5020478;28;21041;-77
2024/02/21 05:53:24;;;;;;;2.90;2.80;;;;;;;;;;5023715;28;20820;-78
2024/02/21 05:55:50;;;;;;;2.57;2.47;;;;;;;;;;5019861;28;20525;-77
2024/02/21 05:58:16;;;;;;;2.40;2.30;;;;;;;;;;5030096;28;20463;-78
2024/02/21 06:00:43;;;;;;;2.30;2.20;;;;;;;;;;5018765;28;20531;-78
2024/02/21 06:03:09;;;;;;;2.20;2.10;;;;;;;;;;5018214;28;20534;-78
2024/02/21 06:05:37;;;;;;;4.63;4.33;;;;;;;;;;5019200;28;20519;-78
2024/02/21 06:08:06;;;;;;;2.10;2.00;;;;;;;;;;5017264;28;20471;-78
2024/02/21 06:10:32;;;;;;;1.87;1.80;;;;;;;;;;5015482;28;20498;-78
2024/02/21 06:12:58;;;;;;;2.50;2.40;;;;;;;;;;5025068;28;20514;-85
2024/02/21 06:15:25;;;;;;;2.63;2.53;;;;;;;;;;5018971;28;20469;-86
2024/02/21 06:17:51;;;;;;;2.70;2.60;;;;;;;;;;5021644;28;20937;-86
2024/02/21 06:20:18;;;;;;;2.70;2.60;;;;;;;;;;5026307;28;20486;-85
2024/02/21 06:22:44;;;;;;;5.23;5.03;;;;;;;;;;5018802;28;20534;-86
2024/02/21 06:25:12;;;;;;;2.80;2.70;;;;;;;;;;5025163;28;20554;-86
2024/02/21 06:27:38;;;;;;;2.70;2.60;;;;;;;;;;5018516;28;20856;-85
2024/02/21 06:30:05;;;;;;;3.00;2.90;;;;;;;;;;5019334;28;20510;-85
2024/02/21 06:32:31;;;;;;;2.67;2.57;;;;;;;;;;5018361;28;20533;-86
2024/02/21 06:34:58;;;;;;;2.83;2.73;;;;;;;;;;5018849;28;20474;-86
2024/02/21 06:37:24;;;;;;;2.83;2.73;;;;;;;;;;5019256;28;20484;-88
2024/02/21 06:39:51;;;;;;;3.10;3.00;;;;;;;;;;5018147;28;20463;-88
2024/02/21 06:42:19;;;;;;;2.70;2.60;;;;;;;;;;5019360;28;20570;-87
2024/02/21 06:44:46;;;;;;;2.90;2.80;;;;;;;;;;5013664;28;20501;-89
2024/02/21 06:47:12;;;;;;;3.20;3.10;;;;;;;;;;5012782;28;20454;-88
2024/02/21 06:49:39;;;;;;;3.23;3.13;;;;;;;;;;5019334;28;21054;-87
2024/02/21 06:52:05;;;;;;;3.60;3.50;;;;;;;;;;5020204;28;20542;-87
2024/02/21 06:54:32;;;;;;;3.67;3.57;;;;;;;;;;5018837;28;20455;-89
2024/02/21 06:56:58;;;;;;;3.10;3.00;;;;;;;;;;5023148;28;20549;-89
2024/02/21 06:59:26;;;;;;;3.53;3.43;;;;;;;;;;5022855;28;20474;-88
2024/02/21 07:01:54;;;;;;;3.50;3.40;;;;;;;;;;5022000;28;20534;-90
2024/02/21 07:04:20;;;;;;;3.40;3.30;;;;;;;;;;5022716;28;20537;-89
2024/02/21 07:06:47;;;;;;;3.60;3.50;;;;;;;;;;5022968;28;20478;-89
2024/02/21 07:09:13;;;;;;;3.27;3.17;;;;;;;;;;5016298;28;20475;-89
2024/02/21 07:11:40;;;;;;;3.80;3.70;;;;;;;;;;5022500;28;20545;-89
2024/02/21 07:14:06;;;;;;;3.50;3.40;;;;;;;;;;5022153;28;20447;-88
2024/02/21 07:16:34;;;;;;;3.20;3.10;;;;;;;;;;5022303;28;20553;-88
2024/02/21 07:19:00;;;;;;;3.70;3.60;;;;;;;;;;5021789;28;21267;-88
2024/02/21 07:21:26;;;;;;;3.63;3.53;;;;;;;;;;5021988;28;20466;-88
2024/02/21 07:23:53;;;;;;;3.60;3.50;;;;;;;;;;5020499;28;20566;-88
2024/02/21 07:26:19;;;;;;;3.80;3.70;;;;;;;;;;5016362;28;20541;-88
2024/02/21 07:28:46;;;;;;;3.90;3.80;;;;;;;;;;5021746;28;20474;-88
2024/02/21 07:31:12;;;;;;;3.77;3.67;;;;;;;;;;5013113;28;20455;-88
2024/02/21 07:33:40;;;;;;;3.97;3.87;;;;;;;;;;5021559;28;21253;-88
2024/02/21 07:36:07;;;;;;;4.13;4.03;;;;;;;;;;5021877;28;20542;-88
2024/02/21 07:38:33;;;;;;;3.70;3.60;;;;;;;;;;5021637;28;20485;-88
2024/02/21 07:41:00;;;;;;;3.70;3.60;;;;;;;;;;5021390;28;20497;-89
2024/02/21 07:43:26;;;;;;;3.70;3.60;;;;;;;;;;5021779;28;20553;-88
2024/02/21 07:45:53;;;;;;;4.37;4.27;;;;;;;;;;5022288;28;20477;-88
2024/02/21 07:48:19;;;;;;;3.87;3.77;;;;;;;;;;5018496;28;20483;-89
2024/02/21 07:50:47;;;;;;;4.10;4.00;;;;;;;;;;5016939;28;20454;-89
2024/02/21 07:53:13;;;;;;;4.00;3.90;;;;;;;;;;5018411;28;20506;-88
2024/02/21 07:55:40;;;;;;;3.97;3.87;;;;;;;;;;5021591;28;20518;-89
2024/02/21 07:58:06;;;;;;;4.33;4.23;;;;;;;;;;5014017;28;20539;-88
2024/02/21 08:00:33;;;;;;;4.10;4.00;;;;;;;;;;5015512;28;20486;-89
2024/02/21 08:02:59;;;;;;;3.97;3.87;;;;;;;;;;5021723;28;20490;-89
2024/02/21 08:05:25;;;;;;;4.30;4.20;;;;;;;;;;5016394;28;20466;-89
2024/02/21 08:07:53;;;;;;;4.10;4.00;;;;;;;;;;5010576;28;20535;-89
2024/02/21 08:10:20;;;;;;;4.33;4.23;;;;;;;;;;5017932;28;20490;-89
2024/02/21 08:12:46;;;;;;;4.23;4.13;;;;;;;;;;5018323;28;20569;-88
2024/02/21 08:15:12;;;;;;;4.10;4.00;;;;;;;;;;5020043;28;20483;-89
2024/02/21 08:17:39;;;;;;;4.70;4.60;;;;;;;;;;5011873;28;20599;-89
2024/02/21 08:20:05;;;;;;;4.27;4.17;;;;;;;;;;5014747;28;20482;-88
2024/02/21 08:22:32;;;;;;;3.97;3.87;;;;;;;;;;5017247;28;20459;-89
2024/02/21 08:25:00;;;;;;;4.40;4.30;;;;;;;;;;5020939;28;20458;-89
2024/02/21 08:27:26;;;;;;;3.93;3.83;;;;;;;;;;5020297;28;20447;-88
2024/02/21 08:29:53;;;;;;;4.80;4.60;;;;;;;;;;5016153;28;20530;-88
2024/02/21 08:32:19;;;;;;;4.23;4.13;;;;;;;;;;5023128;28;20581;-88
2024/02/21 08:34:45;;;;;;;4.03;3.93;;;;;;;;;;5019121;28;20482;-89
2024/02/21 08:37:12;;;;;;;3.90;3.80;;;;;;;;;;5023455;28;20471;-89
2024/02/21 08:39:38;;;;;;;4.30;4.20;;;;;;;;;;5018393;28;20490;-90
2024/02/21 08:42:07;;;;;;;4.50;4.40;;;;;;;;;;5021527;28;20472;-89
2024/02/21 08:44:33;;;;;;;4.20;4.10;;;;;;;;;;5027137;28;20462;-88
2024/02/21 08:47:02;;;;;;;4.43;4.33;;;;;;;;;;5031878;28;20469;-89
2024/02/21 08:49:28;;;;;;;4.47;4.37;;;;;;;;;;5024991;28;20439;-88
2024/02/21 08:51:54;;;;;;;4.60;4.50;;;;;;;;;;5031799;28;20473;-88
2024/02/21 08:54:21;;;;;;;4.90;4.70;;;;;;;;;;5032068;28;20541;-89
2024/02/21 08:56:47;;;;;;;4.50;4.40;;;;;;;;;;5024254;28;20516;-89
2024/02/21 08:59:15;;;;;;;5.13;4.93;;;;;;;;;;5030591;28;20470;-89
2024/02/21 09:01:43;;;;;;;5.03;4.83;;;;;;;;;;5032030;28;20447;-88
2024/02/21 09:04:09;;;;;;;5.00;4.80;;;;;;;;;;5032583;28;20465;-88
2024/02/21 09:06:39;;;;;;;4.87;4.70;;;;;;;;;;5021247;28;20439;-88
2024/02/21 09:09:05;;;;;;;4.90;4.70;;;;;;;;;;5036210;28;20447;-88
2024/02/21 09:11:32;;;;;;;4.90;4.70;;;;;;;;;;5021748;28;20466;-88
2024/02/21 09:13:58;;;;;;;4.80;4.63;;;;;;;;;;5024108;28;20932;-89
2024/02/21 09:16:26;;;;;;;5.50;5.30;;;;;;;;;;5017902;28;20525;-87
2024/02/21 09:18:53;;;;;;;5.23;5.03;;;;;;;;;;5019753;28;20489;-86
2024/02/21 09:21:19;;;;;;;4.93;4.73;;;;;;;;;;5014203;28;20490;-87
2024/02/21 09:23:46;;;;;;;4.70;4.60;;;;;;;;;;5016855;28;21256;-86
2024/02/21 09:26:15;;;;;;;5.23;5.03;;;;;;;;;;5018483;28;20487;-86
2024/02/21 09:28:42;;;;;;;5.40;5.20;;;;;;;;;;5015889;28;20485;-86
2024/02/21 09:31:08;;;;;;;4.50;4.40;;;;;;;;;;5019859;28;20534;-87
2024/02/21 09:33:36;;;;;;;4.80;4.60;;;;;;;;;;5019820;28;20489;-87
2024/02/21 09:36:05;;;;;;;4.60;4.50;;;;;;;;;;5019064;28;20466;-87
2024/02/21 09:38:31;;;;;;;4.43;4.33;;;;;;;;;;5016018;28;20489;-86
2024/02/21 09:41:00;;;;;;;4.13;4.03;;;;;;;;;;5018543;28;20549;-86
2024/02/21 09:43:27;;;;;;;4.73;4.60;;;;;;;;;;5018357;28;20445;-86
2024/02/21 09:45:56;;;;;;;4.80;4.60;;;;;;;;;;5011856;28;20498;-86
2024/02/21 09:48:29;;;;;;;5.43;5.23;;;;;;;;;;5015218;28;20494;-87
2024/02/21 09:50:58;;;;;;;5.10;4.90;;;;;;;;;;5011868;28;20451;-87
2024/02/21 09:53:25;;;;;;;5.47;5.27;;;;;;;;;;5019115;28;20688;-87
2024/02/21 09:55:52;;;;;;;5.80;5.60;;;;;;;;;;5018764;28;20470;-86
2024/02/21 09:58:19;;;;;;;5.60;5.40;;;;;;;;;;5015737;28;20553;-87
2024/02/21 10:00:45;;;;;;;5.50;5.30;;;;;;;;;;5018763;28;20462;-87
2024/02/21 10:03:12;;;;;;;5.93;5.73;;;;;;;;;;5017475;28;20535;-86
2024/02/21 10:05:39;;;;;;;6.07;5.87;;;;;;;;;;5018106;28;20505;-87
2024/02/21 10:08:07;;;;;;;5.63;5.43;;;;;;;;;;5012628;28;20470;-87
2024/02/21 10:10:41;;;;;;;5.10;4.90;;;;;;;;;;5018907;28;20482;-86
2024/02/21 10:13:07;;;;;;;5.50;5.30;;;;;;;;;;5018356;28;20512;-87
2024/02/21 10:15:34;;;;;;;5.30;5.10;;;;;;;;;;5008080;28;20510;-86
2024/02/21 10:18:01;;;;;;;5.80;5.60;;;;;;;;;;5018622;28;20524;-87
2024/02/21 10:20:27;;;;;;;5.83;5.63;;;;;;;;;;5018947;28;20469;-86
2024/02/21 10:23:01;;;;;;;5.70;5.50;;;;;;;;;;5021617;28;20871;-87
2024/02/21 10:25:29;;;;;;;6.43;6.23;;;;;;;;;;5021034;28;20464;-87
2024/02/21 10:27:56;;;;;;;5.80;5.60;;;;;;;;;;5023175;28;20509;-87
2024/02/21 10:30:23;;;;;;;5.70;5.50;;;;;;;;;;5018527;28;20499;-87
2024/02/21 10:32:49;;;;;;;6.37;6.17;;;;;;;;;;5014020;28;20561;-87
2024/02/21 10:35:26;;;;;;;6.00;5.80;;;;;;;;;;5014093;28;20526;-87
2024/02/21 10:37:55;;;;;;;6.07;5.87;;;;;;;;;;5018187;28;20493;-87
2024/02/21 10:40:21;;;;;;;5.87;5.67;;;;;;;;;;5024276;28;20473;-87
2024/02/21 10:42:50;;;;;;;6.40;6.20;;;;;;;;;;5021031;28;20485;-87
2024/02/21 10:45:17;;;;;;;5.80;5.60;;;;;;;;;;5022092;28;20477;-86
2024/02/21 10:47:48;;;;;;;6.00;5.80;;;;;;;;;;5015552;28;20509;-86
2024/02/21 10:50:15;;;;;;;5.30;5.10;;;;;;;;;;5015903;28;21029;-87
2024/02/21 10:52:46;;;;;;;17.83;7.10;;;;;;;;;;5015354;28;21006;-86
2024/02/21 10:55:17;;;;;;;5.40;5.20;;;;;;;;;;5021551;28;20497;-86
2024/02/21 10:57:43;;;;;;;5.70;5.50;;;;;;;;;;5022262;28;20489;-86
2024/02/21 11:00:13;;;;;;;5.90;5.70;;;;;;;;;;5022359;28;20485;-86
2024/02/21 11:02:40;;;;;;;5.90;5.70;;;;;;;;;;5020751;28;20493;-86
2024/02/21 11:05:07;;;;;;;5.10;4.90;;;;;;;;;;5021742;28;20459;-87
2024/02/21 11:07:36;;;;;;;4.90;4.70;;;;;;;;;;5021603;28;20482;-88
2024/02/21 11:10:03;;;;;;;5.00;4.80;;;;;;;;;;5019557;28;20550;-86
2024/02/21 11:12:33;;;;;;;5.23;5.03;;;;;;;;;;5022740;28;20462;-87
2024/02/21 11:15:05;;;;;;;5.27;5.07;;;;;;;;;;5022719;28;20895;-87
2024/02/21 11:17:32;;;;;;;5.20;5.00;;;;;;;;;;5021332;28;20505;-86
2024/02/21 11:20:01;;;;;;;4.80;4.60;;;;;;;;;;5022918;28;20470;-86
2024/02/21 11:22:31;;;;;;;4.67;4.53;;;;;;;;;;5023382;28;20446;-86
2024/02/21 11:25:07;;;;;;;4.10;4.00;;;;;;;;;;5022840;28;20486;-86
2024/02/21 11:27:34;;;;;;;4.80;4.60;;;;;;;;;;5023215;28;20490;-86
2024/02/21 11:30:01;;;;;;;3.80;3.70;;;;;;;;;;5021907;28;20546;-86
2024/02/21 11:32:29;;;;;;;5.07;4.87;;;;;;;;;;5023070;28;21006;-87
2024/02/21 11:35:01;;;;;;;4.40;4.30;;;;;;;;;;5014979;28;20532;-87
2024/02/21 11:37:28;;;;;;;4.80;4.60;;;;;;;;;;5019550;28;20931;-87
2024/02/21 11:39:55;;;;;;;4.90;4.70;;;;;;;;;;5015803;28;20455;-87
2024/02/21 11:42:22;;;;;;;5.40;5.20;;;;;;;;;;5019303;28;20530;-86
2024/02/21 11:44:48;;;;;;;5.17;4.97;;;;;;;;;;5017589;28;20469;-86
2024/02/21 11:47:17;;;;;;;7.37;6.77;;;;;;;;;;5021774;28;20518;-86
2024/02/21 11:49:44;;;;;;;6.10;5.80;;;;;;;;;;5021519;28;20458;-86
2024/02/21 11:52:12;;;;;;;5.10;4.90;;;;;;;;;;5012595;28;20461;-86
2024/02/21 11:54:38;;;;;;;4.57;4.40;;;;;;;;;;5018421;28;20525;-86
2024/02/21 11:57:05;;;;;;;5.10;4.90;;;;;;;;;;5019339;28;20489;-86
2024/02/21 11:59:32;;;;;;;5.33;5.13;;;;;;;;;;5021288;28;20447;-86
2024/02/21 12:01:59;;;;;;;4.60;4.50;;;;;;;;;;5018883;28;20455;-86
2024/02/21 12:04:25;;;;;;;4.93;4.73;;;;;;;;;;5017666;28;20494;-86
2024/02/21 12:06:53;;;;;;;4.20;4.10;;;;;;;;;;5020728;28;20904;-85
2024/02/21 12:09:21;;;;;;;5.30;5.10;;;;;;;;;;5020522;28;20535;-86
2024/02/21 12:11:56;;;;;;;4.40;4.30;;;;;;;;;;5020710;28;20486;-86
2024/02/21 12:14:25;;;;;;;5.57;5.37;;;;;;;;;;5017474;28;20485;-87
2024/02/21 12:16:52;;;;;;;5.83;5.63;;;;;;;;;;5015125;28;20489;-86
2024/02/21 12:19:18;;;;;;;4.83;4.63;;;;;;;;;;5020232;28;20529;-86
2024/02/21 12:21:44;;;;;;;4.60;4.50;;;;;;;;;;5012723;28;20526;-86
2024/02/21 12:24:14;;;;;;;5.00;4.80;;;;;;;;;;5019716;28;20482;-86
2024/02/21 12:26:42;;;;;;;4.27;4.17;;;;;;;;;;5012723;28;20455;-86
2024/02/21 12:29:10;;;;;;;3.70;3.60;;;;;;;;;;5014693;28;20559;-86
2024/02/21 12:31:36;;;;;;;4.00;3.90;;;;;;;;;;5019121;28;20880;-86
2024/02/21 12:34:03;;;;;;;4.60;4.50;;;;;;;;;;5015025;28;21008;-86
2024/02/21 12:36:30;;;;;;;4.47;4.37;;;;;;;;;;5016451;28;20520;-86
2024/02/21 12:38:56;;;;;;;4.80;4.60;;;;;;;;;;5014507;28;20490;-86
2024/02/21 12:41:25;;;;;;;4.30;4.20;;;;;;;;;;5020572;28;20507;-86
2024/02/21 12:43:53;;;;;;;4.57;4.47;;;;;;;;;;5018862;28;20447;-86
2024/02/21 12:46:19;;;;;;;4.50;4.40;;;;;;;;;;5016035;28;20483;-86
2024/02/21 12:48:45;;;;;;;4.73;4.53;;;;;;;;;;5016418;28;20479;-86
2024/02/21 12:51:12;;;;;;;4.70;4.57;;;;;;;;;;5021166;28;20454;-85
2024/02/21 12:53:39;;;;;;;4.60;4.50;;;;;;;;;;5019388;28;20523;-85
2024/02/21 12:56:07;;;;;;;4.90;4.70;;;;;;;;;;5019032;28;20477;-87
2024/02/21 12:58:33;;;;;;;4.03;3.93;;;;;;;;;;5015393;28;20531;-86
2024/02/21 13:01:01;;;;;;;5.17;4.97;;;;;;;;;;5017994;28;20489;-86
2024/02/21 13:03:28;;;;;;;4.37;4.27;;;;;;;;;;5013512;28;21275;-87
2024/02/21 13:05:54;;;;;;;5.20;5.00;;;;;;;;;;5018860;28;20493;-86
2024/02/21 13:08:22;;;;;;;3.53;3.43;;;;;;;;;;5019182;28;20537;-86
2024/02/21 13:10:49;;;;;;;3.97;3.87;;;;;;;;;;5019058;28;20458;-86
2024/02/21 13:13:15;;;;;;;4.30;4.20;;;;;;;;;;5015442;28;20530;-86
2024/02/21 13:15:42;;;;;;;5.30;5.10;;;;;;;;;;5014110;28;20526;-86
2024/02/21 13:18:10;;;;;;;5.00;4.80;;;;;;;;;;5019567;28;20544;-86
2024/02/21 13:20:37;;;;;;;4.33;4.23;;;;;;;;;;5014183;28;20466;-86
2024/02/21 13:23:03;;;;;;;4.30;4.20;;;;;;;;;;5019250;28;20573;-86
2024/02/21 13:25:30;;;;;;;4.13;4.03;;;;;;;;;;5012015;28;20522;-85
2024/02/21 13:27:56;;;;;;;3.93;3.83;;;;;;;;;;5019317;28;20462;-86
2024/02/21 13:30:23;;;;;;;3.73;3.63;;;;;;;;;;5018816;28;20460;-87
2024/02/21 13:32:49;;;;;;;4.07;3.97;;;;;;;;;;5019613;28;20478;-87
2024/02/21 13:35:17;;;;;;;4.30;4.20;;;;;;;;;;5013923;28;20522;-86
2024/02/21 13:37:44;;;;;;;5.77;5.57;;;;;;;;;;5013323;28;20464;-87
2024/02/21 13:40:11;;;;;;;4.80;4.60;;;;;;;;;;5014083;28;20463;-87
2024/02/21 13:42:37;;;;;;;3.83;3.73;;;;;;;;;;5015269;28;20507;-86
2024/02/21 13:45:05;;;;;;;3.97;3.87;;;;;;;;;;5011803;28;21033;-86
2024/02/21 13:47:31;;;;;;;3.90;3.80;;;;;;;;;;5014004;28;20460;-85
2024/02/21 13:49:57;;;;;;;4.20;4.10;;;;;;;;;;5013717;28;20506;-86
2024/02/21 13:52:26;;;;;;;3.33;3.23;;;;;;;;;;5018982;28;20537;-86
2024/02/21 13:54:52;;;;;;;5.33;5.13;;;;;;;;;;5014489;28;20490;-86
2024/02/21 13:57:18;;;;;;;4.97;4.77;;;;;;;;;;5019560;28;20482;-86
2024/02/21 13:59:45;;;;;;;4.00;3.90;;;;;;;;;;5023414;28;20481;-86
2024/02/21 14:02:12;;;;;;;3.90;3.80;;;;;;;;;;5023097;28;20550;-87
2024/02/21 14:04:38;;;;;;;3.97;3.87;;;;;;;;;;5022671;28;20466;-85
2024/02/21 14:07:05;;;;;;;3.80;3.70;;;;;;;;;;5032609;28;20466;-84
2024/02/21 14:09:33;;;;;;;3.67;3.57;;;;;;;;;;5027266;28;20493;-85
2024/02/21 14:12:00;;;;;;;6.47;6.03;;;;;;;;;;5027738;28;20469;-84
2024/02/21 14:14:26;;;;;;;5.90;5.70;;;;;;;;;;5022255;28;20517;-84
2024/02/21 14:16:53;;;;;;;6.17;5.97;;;;;;;;;;5021364;28;20497;-83
2024/02/21 14:19:19;;;;;;;5.43;5.23;;;;;;;;;;5023029;28;20533;-84
2024/02/21 14:21:46;;;;;;;6.60;6.40;;;;;;;;;;5020462;28;20457;-84
2024/02/21 14:24:12;;;;;;;6.00;5.80;;;;;;;;;;5027588;28;20450;-84
2024/02/21 14:26:41;;;;;;;6.37;6.17;;;;;;;;;;5026073;28;20454;-85
2024/02/21 14:29:07;;;;;;;6.47;6.27;;;;;;;;;;5025027;28;20520;-85
2024/02/21 14:31:34;;;;;;;5.20;5.00;;;;;;;;;;5030643;28;20500;-85
2024/02/21 14:34:02;;;;;;;5.03;4.83;;;;;;;;;;5018203;28;20443;-85
2024/02/21 14:36:28;;;;;;;4.77;4.57;;;;;;;;;;5023263;28;21199;-85
2024/02/21 14:38:54;;;;;;;4.27;4.17;;;;;;;;;;5020377;28;20931;-84
2024/02/21 14:41:21;;;;;;;4.90;4.70;;;;;;;;;;5019504;28;20466;-84